sensor_id;sensor_type;location;lat;lon;timestamp;temperature;humidity
75471;HTU21D;64051;46.320;48.028;2023-09-08T00:02:23;18.71;45.95
75471;HTU21D;64051;46.320;48.028;2023-09-08T00:04:50;18.65;45.98
75471;HTU21D;64051;46.320;48.028;2023-09-08T00:07:15;18.62;46.02
75471;HTU21D;64051;46.320;48.028;2023-09-08T00:09:41;18.57;46.06
75471;HTU21D;64051;46.320;48.028;2023-09-08T00:12:07;18.52;46.12
75471;HTU21D;64051;46.320;48.028;2023-09-08T00:14:33;18.49;46.16
75471;HTU21D;64051;46.320;48.028;2023-09-08T00:16:59;18.43;46.22
75471;HTU21D;64051;46.320;48.028;2023-09-08T00:19:25;18.38;46.27
75471;HTU21D;64051;46.320;48.028;2023-09-08T00:21:51;18.32;46.31
75471;HTU21D;64051;46.320;48.028;2023-09-08T00:24:18;18.27;46.35
75471;HTU21D;64051;46.320;48.028;2023-09-08T00:26:44;18.20;46.40
75471;HTU21D;64051;46.320;48.028;2023-09-08T00:29:10;18.12;46.47
75471;HTU21D;64051;46.320;48.028;2023-09-08T00:31:36;18.06;46.55
75471;HTU21D;64051;46.320;48.028;2023-09-08T00:34:01;18.03;46.61
75471;HTU21D;64051;46.320;48.028;2023-09-08T00:36:27;17.95;46.67
75471;HTU21D;64051;46.320;48.028;2023-09-08T00:38:53;17.90;46.71
75471;HTU21D;64051;46.320;48.028;2023-09-08T00:41:19;17.84;46.78
75471;HTU21D;64051;46.320;48.028;2023-09-08T00:43:45;17.80;46.83
75471;HTU21D;64051;46.320;48.028;2023-09-08T00:46:11;17.74;46.87
75471;HTU21D;64051;46.320;48.028;2023-09-08T00:48:38;17.67;46.93
75471;HTU21D;64051;46.320;48.028;2023-09-08T00:51:04;17.60;46.98
75471;HTU21D;64051;46.320;48.028;2023-09-08T00:53:33;17.54;47.09
75471;HTU21D;64051;46.320;48.028;2023-09-08T00:56:00;17.48;47.16
75471;HTU21D;64051;46.320;48.028;2023-09-08T00:58:26;17.41;47.22
75471;HTU21D;64051;46.320;48.028;2023-09-08T01:00:53;17.33;47.22
75471;HTU21D;64051;46.320;48.028;2023-09-08T01:03:20;17.26;47.25
75471;HTU21D;64051;46.320;48.028;2023-09-08T01:05:45;17.18;47.26
75471;HTU21D;64051;46.320;48.028;2023-09-08T01:08:12;17.09;47.32
75471;HTU21D;64051;46.320;48.028;2023-09-08T01:10:38;17.00;47.38
75471;HTU21D;64051;46.320;48.028;2023-09-08T01:13:06;16.88;47.41
75471;HTU21D;64051;46.320;48.028;2023-09-08T01:15:33;16.78;47.53
75471;HTU21D;64051;46.320;48.028;2023-09-08T01:17:59;16.67;47.56
75471;HTU21D;64051;46.320;48.028;2023-09-08T01:20:48;16.57;47.62
75471;HTU21D;64051;46.320;48.028;2023-09-08T01:23:17;16.45;47.70
75471;HTU21D;64051;46.320;48.028;2023-09-08T01:26:03;16.36;47.75
75471;HTU21D;64051;46.320;48.028;2023-09-08T01:28:29;16.26;47.82
75471;HTU21D;64051;46.320;48.028;2023-09-08T01:30:56;16.17;47.85
75471;HTU21D;64051;46.320;48.028;2023-09-08T01:33:23;16.08;47.86
75471;HTU21D;64051;46.320;48.028;2023-09-08T01:35:49;16.04;47.88
75471;HTU21D;64051;46.320;48.028;2023-09-08T01:38:15;15.98;47.89
75471;HTU21D;64051;46.320;48.028;2023-09-08T01:40:41;15.90;47.88
75471;HTU21D;64051;46.320;48.028;2023-09-08T01:43:07;15.83;47.89
75471;HTU21D;64051;46.320;48.028;2023-09-08T01:45:33;15.78;47.89
75471;HTU21D;64051;46.320;48.028;2023-09-08T01:47:58;15.72;47.91
75471;HTU21D;64051;46.320;48.028;2023-09-08T01:50:25;15.68;47.88
75471;HTU21D;64051;46.320;48.028;2023-09-08T01:52:51;15.60;47.92
75471;HTU21D;64051;46.320;48.028;2023-09-08T01:55:17;15.56;47.92
75471;HTU21D;64051;46.320;48.028;2023-09-08T01:57:43;15.49;47.89
75471;HTU21D;64051;46.320;48.028;2023-09-08T02:00:09;15.44;47.92
75471;HTU21D;64051;46.320;48.028;2023-09-08T02:02:38;15.40;47.92
75471;HTU21D;64051;46.320;48.028;2023-09-08T02:05:04;15.36;47.95
75471;HTU21D;64051;46.320;48.028;2023-09-08T02:07:30;15.28;47.95
75471;HTU21D;64051;46.320;48.028;2023-09-08T02:09:56;15.24;47.98
75471;HTU21D;64051;46.320;48.028;2023-09-08T02:12:22;15.18;47.99
75471;HTU21D;64051;46.320;48.028;2023-09-08T02:14:48;15.12;48.01
75471;HTU21D;64051;46.320;48.028;2023-09-08T02:17:13;15.07;48.04
75471;HTU21D;64051;46.320;48.028;2023-09-08T02:19:39;15.02;48.06
75471;HTU21D;64051;46.320;48.028;2023-09-08T02:22:05;14.97;48.09
75471;HTU21D;64051;46.320;48.028;2023-09-08T02:24:31;14.92;48.11
75471;HTU21D;64051;46.320;48.028;2023-09-08T02:26:57;14.89;48.14
75471;HTU21D;64051;46.320;48.028;2023-09-08T02:29:24;14.83;48.17
75471;HTU21D;64051;46.320;48.028;2023-09-08T02:31:50;14.79;48.20
75471;HTU21D;64051;46.320;48.028;2023-09-08T02:34:16;14.74;48.24
75471;HTU21D;64051;46.320;48.028;2023-09-08T02:36:43;14.69;48.31
75471;HTU21D;64051;46.320;48.028;2023-09-08T02:39:09;14.65;48.34
75471;HTU21D;64051;46.320;48.028;2023-09-08T02:41:39;14.62;48.41
75471;HTU21D;64051;46.320;48.028;2023-09-08T02:44:05;14.57;48.46
75471;HTU21D;64051;46.320;48.028;2023-09-08T02:46:31;14.55;48.49
75471;HTU21D;64051;46.320;48.028;2023-09-08T02:49:01;14.53;48.53
75471;HTU21D;64051;46.320;48.028;2023-09-08T02:51:27;14.52;48.55
75471;HTU21D;64051;46.320;48.028;2023-09-08T02:53:53;14.51;48.57
75471;HTU21D;64051;46.320;48.028;2023-09-08T02:56:19;14.49;48.58
75471;HTU21D;64051;46.320;48.028;2023-09-08T02:58:45;14.47;48.61
75471;HTU21D;64051;46.320;48.028;2023-09-08T03:01:11;14.47;48.63
75471;HTU21D;64051;46.320;48.028;2023-09-08T03:03:39;14.45;48.63
75471;HTU21D;64051;46.320;48.028;2023-09-08T03:06:06;14.47;48.65
75471;HTU21D;64051;46.320;48.028;2023-09-08T03:08:31;14.45;48.68
75471;HTU21D;64051;46.320;48.028;2023-09-08T03:11:00;14.49;48.70
75471;HTU21D;64051;46.320;48.028;2023-09-08T03:13:26;14.50;48.70
75471;HTU21D;64051;46.320;48.028;2023-09-08T03:16:04;14.52;48.77
75471;HTU21D;64051;46.320;48.028;2023-09-08T03:18:32;14.55;48.73
75471;HTU21D;64051;46.320;48.028;2023-09-08T03:20:58;14.59;48.73
75471;HTU21D;64051;46.320;48.028;2023-09-08T03:23:25;14.63;48.71
75471;HTU21D;64051;46.320;48.028;2023-09-08T03:25:50;14.66;48.70
75471;HTU21D;64051;46.320;48.028;2023-09-08T03:28:19;14.71;48.63
75471;HTU21D;64051;46.320;48.028;2023-09-08T03:30:48;14.73;48.55
75471;HTU21D;64051;46.320;48.028;2023-09-08T03:33:14;14.77;48.50
75471;HTU21D;64051;46.320;48.028;2023-09-08T03:35:39;14.80;48.49
75471;HTU21D;64051;46.320;48.028;2023-09-08T03:38:05;14.81;48.47
75471;HTU21D;64051;46.320;48.028;2023-09-08T03:40:32;14.84;48.48
75471;HTU21D;64051;46.320;48.028;2023-09-08T03:43:01;14.91;48.46
75471;HTU21D;64051;46.320;48.028;2023-09-08T03:45:27;14.93;48.39
75471;HTU21D;64051;46.320;48.028;2023-09-08T03:47:52;14.93;48.37
75471;HTU21D;64051;46.320;48.028;2023-09-08T03:50:18;14.94;48.39
75471;HTU21D;64051;46.320;48.028;2023-09-08T03:52:44;14.92;48.37
75471;HTU21D;64051;46.320;48.028;2023-09-08T03:55:13;14.92;48.41
75471;HTU21D;64051;46.320;48.028;2023-09-08T03:57:39;14.92;48.42
75471;HTU21D;64051;46.320;48.028;2023-09-08T04:00:05;14.96;48.43
75471;HTU21D;64051;46.320;48.028;2023-09-08T04:02:39;14.98;48.40
75471;HTU21D;64051;46.320;48.028;2023-09-08T04:05:06;15.02;48.39
75471;HTU21D;64051;46.320;48.028;2023-09-08T04:07:32;15.07;48.37
75471;HTU21D;64051;46.320;48.028;2023-09-08T04:09:57;15.14;48.40
75471;HTU21D;64051;46.320;48.028;2023-09-08T04:12:23;15.23;48.31
75471;HTU21D;64051;46.320;48.028;2023-09-08T04:14:50;15.29;48.21
75471;HTU21D;64051;46.320;48.028;2023-09-08T04:17:16;15.31;48.14
75471;HTU21D;64051;46.320;48.028;2023-09-08T04:19:42;15.37;48.15
75471;HTU21D;64051;46.320;48.028;2023-09-08T04:22:09;15.39;48.10
75471;HTU21D;64051;46.320;48.028;2023-09-08T04:24:36;15.45;48.16
75471;HTU21D;64051;46.320;48.028;2023-09-08T04:27:02;15.49;48.08
75471;HTU21D;64051;46.320;48.028;2023-09-08T04:29:28;15.54;48.06
75471;HTU21D;64051;46.320;48.028;2023-09-08T04:31:54;15.56;48.08
75471;HTU21D;64051;46.320;48.028;2023-09-08T04:34:20;15.60;48.07
75471;HTU21D;64051;46.320;48.028;2023-09-08T04:36:46;15.67;48.08
75471;HTU21D;64051;46.320;48.028;2023-09-08T04:39:12;15.77;48.02
75471;HTU21D;64051;46.320;48.028;2023-09-08T04:41:40;15.83;47.89
75471;HTU21D;64051;46.320;48.028;2023-09-08T04:44:06;15.84;47.92
75471;HTU21D;64051;46.320;48.028;2023-09-08T04:46:34;15.91;47.95
75471;HTU21D;64051;46.320;48.028;2023-09-08T04:49:00;15.98;47.80
75471;HTU21D;64051;46.320;48.028;2023-09-08T04:51:27;16.00;47.82
75471;HTU21D;64051;46.320;48.028;2023-09-08T04:53:53;16.07;47.84
75471;HTU21D;64051;46.320;48.028;2023-09-08T04:56:18;16.14;47.76
75471;HTU21D;64051;46.320;48.028;2023-09-08T04:58:46;16.19;47.68
75471;HTU21D;64051;46.320;48.028;2023-09-08T05:01:13;16.26;47.66
75471;HTU21D;64051;46.320;48.028;2023-09-08T05:03:41;16.31;47.62
75471;HTU21D;64051;46.320;48.028;2023-09-08T05:06:08;16.37;47.63
75471;HTU21D;64051;46.320;48.028;2023-09-08T05:08:36;16.43;47.55
75471;HTU21D;64051;46.320;48.028;2023-09-08T05:11:05;16.47;47.52
75471;HTU21D;64051;46.320;48.028;2023-09-08T05:13:32;16.50;47.45
75471;HTU21D;64051;46.320;48.028;2023-09-08T05:16:02;16.52;47.50
75471;HTU21D;64051;46.320;48.028;2023-09-08T05:18:40;16.62;47.57
75471;HTU21D;64051;46.320;48.028;2023-09-08T05:21:10;16.75;47.52
75471;HTU21D;64051;46.320;48.028;2023-09-08T05:23:36;16.87;47.38
75471;HTU21D;64051;46.320;48.028;2023-09-08T05:26:03;16.94;47.27
75471;HTU21D;64051;46.320;48.028;2023-09-08T05:28:29;17.00;47.15
75471;HTU21D;64051;46.320;48.028;2023-09-08T05:30:55;17.01;47.15
75471;HTU21D;64051;46.320;48.028;2023-09-08T05:33:21;17.08;47.18
75471;HTU21D;64051;46.320;48.028;2023-09-08T05:35:47;17.21;47.23
75471;HTU21D;64051;46.320;48.028;2023-09-08T05:38:15;17.37;47.09
75471;HTU21D;64051;46.320;48.028;2023-09-08T05:40:41;17.46;46.86
75471;HTU21D;64051;46.320;48.028;2023-09-08T05:43:07;17.53;46.84
75471;HTU21D;64051;46.320;48.028;2023-09-08T05:45:32;17.65;46.82
75471;HTU21D;64051;46.320;48.028;2023-09-08T05:47:59;17.76;46.65
75471;HTU21D;64051;46.320;48.028;2023-09-08T05:50:29;17.85;46.47
75471;HTU21D;64051;46.320;48.028;2023-09-08T05:52:56;17.91;46.44
75471;HTU21D;64051;46.320;48.028;2023-09-08T05:55:22;18.02;46.44
75471;HTU21D;64051;46.320;48.028;2023-09-08T05:57:48;18.15;46.39
75471;HTU21D;64051;46.320;48.028;2023-09-08T06:00:15;18.28;46.14
75471;HTU21D;64051;46.320;48.028;2023-09-08T06:02:46;18.36;45.97
75471;HTU21D;64051;46.320;48.028;2023-09-08T06:05:13;18.43;45.90
75471;HTU21D;64051;46.320;48.028;2023-09-08T06:07:40;18.52;45.74
75471;HTU21D;64051;46.320;48.028;2023-09-08T06:10:08;18.61;45.71
75471;HTU21D;64051;46.320;48.028;2023-09-08T06:12:34;18.69;45.61
75471;HTU21D;64051;46.320;48.028;2023-09-08T06:15:02;18.77;45.40
75471;HTU21D;64051;46.320;48.028;2023-09-08T06:17:35;18.80;45.39
75471;HTU21D;64051;46.320;48.028;2023-09-08T06:20:01;18.89;45.47
75471;HTU21D;64051;46.320;48.028;2023-09-08T06:22:28;19.03;45.30
75471;HTU21D;64051;46.320;48.028;2023-09-08T06:24:53;19.11;45.06
75471;HTU21D;64051;46.320;48.028;2023-09-08T06:27:19;19.15;44.93
75471;HTU21D;64051;46.320;48.028;2023-09-08T06:29:45;19.17;44.85
75471;HTU21D;64051;46.320;48.028;2023-09-08T06:32:13;19.21;44.65
75471;HTU21D;64051;46.320;48.028;2023-09-08T06:34:42;19.24;44.57
75471;HTU21D;64051;46.320;48.028;2023-09-08T06:37:11;19.29;44.55
75471;HTU21D;64051;46.320;48.028;2023-09-08T06:39:40;19.40;44.50
75471;HTU21D;64051;46.320;48.028;2023-09-08T06:42:07;19.51;44.28
75471;HTU21D;64051;46.320;48.028;2023-09-08T06:44:34;19.58;44.01
75471;HTU21D;64051;46.320;48.028;2023-09-08T06:47:03;19.61;43.87
75471;HTU21D;64051;46.320;48.028;2023-09-08T06:49:33;19.68;43.90
75471;HTU21D;64051;46.320;48.028;2023-09-08T06:51:59;19.80;43.80
75471;HTU21D;64051;46.320;48.028;2023-09-08T06:54:25;19.88;43.56
75471;HTU21D;64051;46.320;48.028;2023-09-08T06:56:51;19.96;43.21
75471;HTU21D;64051;46.320;48.028;2023-09-08T06:59:17;19.96;43.00
75471;HTU21D;64051;46.320;48.028;2023-09-08T07:01:43;20.01;42.97
75471;HTU21D;64051;46.320;48.028;2023-09-08T07:04:10;20.05;42.75
75471;HTU21D;64051;46.320;48.028;2023-09-08T07:06:37;20.05;42.71
75471;HTU21D;64051;46.320;48.028;2023-09-08T07:09:04;20.09;42.68
75471;HTU21D;64051;46.320;48.028;2023-09-08T07:11:31;20.12;42.30
75471;HTU21D;64051;46.320;48.028;2023-09-08T07:13:57;20.15;42.27
75471;HTU21D;64051;46.320;48.028;2023-09-08T07:16:23;20.22;42.26
75471;HTU21D;64051;46.320;48.028;2023-09-08T07:18:52;20.29;42.07
75471;HTU21D;64051;46.320;48.028;2023-09-08T07:21:18;20.37;42.03
75471;HTU21D;64051;46.320;48.028;2023-09-08T07:23:44;20.43;41.78
75471;HTU21D;64051;46.320;48.028;2023-09-08T07:26:15;20.46;41.71
75471;HTU21D;64051;46.320;48.028;2023-09-08T07:28:42;20.51;41.82
75471;HTU21D;64051;46.320;48.028;2023-09-08T07:31:18;20.65;41.71
75471;HTU21D;64051;46.320;48.028;2023-09-08T07:33:47;20.75;41.57
75471;HTU21D;64051;46.320;48.028;2023-09-08T07:36:13;20.81;41.51
75471;HTU21D;64051;46.320;48.028;2023-09-08T07:38:43;20.88;41.45
75471;HTU21D;64051;46.320;48.028;2023-09-08T07:41:12;20.95;41.33
75471;HTU21D;64051;46.320;48.028;2023-09-08T07:43:38;21.02;41.17
75471;HTU21D;64051;46.320;48.028;2023-09-08T07:46:08;21.07;41.10
75471;HTU21D;64051;46.320;48.028;2023-09-08T07:48:34;21.07;40.81
75471;HTU21D;64051;46.320;48.028;2023-09-08T07:51:00;21.02;40.74
75471;HTU21D;64051;46.320;48.028;2023-09-08T07:53:27;20.91;40.36
75471;HTU21D;64051;46.320;48.028;2023-09-08T07:55:53;20.84;40.25
75471;HTU21D;64051;46.320;48.028;2023-09-08T07:58:22;20.77;40.23
75471;HTU21D;64051;46.320;48.028;2023-09-08T08:00:48;20.73;40.39
75471;HTU21D;64051;46.320;48.028;2023-09-08T08:03:14;20.75;40.45
75471;HTU21D;64051;46.320;48.028;2023-09-08T08:05:46;20.79;40.42
75471;HTU21D;64051;46.320;48.028;2023-09-08T08:08:13;20.87;40.41
75471;HTU21D;64051;46.320;48.028;2023-09-08T08:10:41;21.01;40.34
75471;HTU21D;64051;46.320;48.028;2023-09-08T08:13:07;21.11;40.26
75471;HTU21D;64051;46.320;48.028;2023-09-08T08:15:38;21.23;39.87
75471;HTU21D;64051;46.320;48.028;2023-09-08T08:18:07;21.23;39.71
75471;HTU21D;64051;46.320;48.028;2023-09-08T08:20:35;21.22;39.88
75471;HTU21D;64051;46.320;48.028;2023-09-08T08:23:03;21.25;39.67
75471;HTU21D;64051;46.320;48.028;2023-09-08T08:25:33;21.27;39.75
75471;HTU21D;64051;46.320;48.028;2023-09-08T08:27:59;21.27;39.37
75471;HTU21D;64051;46.320;48.028;2023-09-08T08:30:27;21.19;39.37
75471;HTU21D;64051;46.320;48.028;2023-09-08T08:32:53;21.18;39.48
75471;HTU21D;64051;46.320;48.028;2023-09-08T08:35:21;21.25;39.39
75471;HTU21D;64051;46.320;48.028;2023-09-08T08:37:50;21.29;39.26
75471;HTU21D;64051;46.320;48.028;2023-09-08T08:40:16;21.27;39.14
75471;HTU21D;64051;46.320;48.028;2023-09-08T08:42:42;21.25;39.01
75471;HTU21D;64051;46.320;48.028;2023-09-08T08:45:10;21.28;39.01
75471;HTU21D;64051;46.320;48.028;2023-09-08T08:47:44;21.34;38.89
75471;HTU21D;64051;46.320;48.028;2023-09-08T08:50:11;21.40;38.95
75471;HTU21D;64051;46.320;48.028;2023-09-08T08:52:39;21.53;38.96
75471;HTU21D;64051;46.320;48.028;2023-09-08T08:55:06;21.66;38.75
75471;HTU21D;64051;46.320;48.028;2023-09-08T08:57:32;21.77;38.58
75471;HTU21D;64051;46.320;48.028;2023-09-08T08:59:59;21.81;38.43
75471;HTU21D;64051;46.320;48.028;2023-09-08T09:02:28;21.84;38.25
75471;HTU21D;64051;46.320;48.028;2023-09-08T09:04:54;21.85;38.32
75471;HTU21D;64051;46.320;48.028;2023-09-08T09:07:20;21.90;38.30
75471;HTU21D;64051;46.320;48.028;2023-09-08T09:09:46;21.91;38.15
75471;HTU21D;64051;46.320;48.028;2023-09-08T09:12:12;21.89;38.11
75471;HTU21D;64051;46.320;48.028;2023-09-08T09:14:45;21.82;37.68
75471;HTU21D;64051;46.320;48.028;2023-09-08T09:17:14;21.70;37.97
75471;HTU21D;64051;46.320;48.028;2023-09-08T09:19:40;21.72;38.02
75471;HTU21D;64051;46.320;48.028;2023-09-08T09:22:07;21.65;37.69
75471;HTU21D;64051;46.320;48.028;2023-09-08T09:24:35;21.58;37.77
75471;HTU21D;64051;46.320;48.028;2023-09-08T09:27:07;21.53;35.86
75471;HTU21D;64051;46.320;48.028;2023-09-08T09:29:33;21.50;37.40
75471;HTU21D;64051;46.320;48.028;2023-09-08T09:32:06;21.45;37.62
75471;HTU21D;64051;46.320;48.028;2023-09-08T09:34:35;21.48;37.90
75471;HTU21D;64051;46.320;48.028;2023-09-08T09:37:01;21.55;37.77
75471;HTU21D;64051;46.320;48.028;2023-09-08T09:39:30;21.59;37.79
75471;HTU21D;64051;46.320;48.028;2023-09-08T09:41:57;21.68;37.82
75471;HTU21D;64051;46.320;48.028;2023-09-08T09:44:24;21.83;37.69
75471;HTU21D;64051;46.320;48.028;2023-09-08T09:46:53;21.96;37.56
75471;HTU21D;64051;46.320;48.028;2023-09-08T09:49:22;22.05;37.46
75471;HTU21D;64051;46.320;48.028;2023-09-08T09:51:53;22.05;37.25
75471;HTU21D;64051;46.320;48.028;2023-09-08T09:54:19;22.07;37.29
75471;HTU21D;64051;46.320;48.028;2023-09-08T09:56:57;22.14;37.33
75471;HTU21D;64051;46.320;48.028;2023-09-08T09:59:26;22.20;37.26
75471;HTU21D;64051;46.320;48.028;2023-09-08T10:01:53;22.23;37.23
75471;HTU21D;64051;46.320;48.028;2023-09-08T10:04:22;22.25;37.03
75471;HTU21D;64051;46.320;48.028;2023-09-08T10:06:51;22.23;36.98
75471;HTU21D;64051;46.320;48.028;2023-09-08T10:09:21;22.18;36.98
75471;HTU21D;64051;46.320;48.028;2023-09-08T10:11:49;22.16;36.74
75471;HTU21D;64051;46.320;48.028;2023-09-08T10:14:17;22.11;36.72
75471;HTU21D;64051;46.320;48.028;2023-09-08T10:16:45;22.12;36.84
75471;HTU21D;64051;46.320;48.028;2023-09-08T10:19:16;22.23;36.87
75471;HTU21D;64051;46.320;48.028;2023-09-08T10:21:46;22.34;36.77
75471;HTU21D;64051;46.320;48.028;2023-09-08T10:24:22;22.42;36.50
75471;HTU21D;64051;46.320;48.028;2023-09-08T10:27:11;22.42;35.96
75471;HTU21D;64051;46.320;48.028;2023-09-08T10:29:38;22.28;36.15
75471;HTU21D;64051;46.320;48.028;2023-09-08T10:32:08;22.14;36.14
75471;HTU21D;64051;46.320;48.028;2023-09-08T10:34:36;22.11;36.37
75471;HTU21D;64051;46.320;48.028;2023-09-08T10:39:50;22.31;36.38
75471;HTU21D;64051;46.320;48.028;2023-09-08T10:47:14;22.38;36.21
75471;HTU21D;64051;46.320;48.028;2023-09-08T10:49:40;22.41;36.04
75471;HTU21D;64051;46.320;48.028;2023-09-08T10:52:11;22.43;35.96
75471;HTU21D;64051;46.320;48.028;2023-09-08T10:54:45;22.50;35.86
75471;HTU21D;64051;46.320;48.028;2023-09-08T10:57:25;22.58;35.92
75471;HTU21D;64051;46.320;48.028;2023-09-08T10:59:54;22.65;35.80
75471;HTU21D;64051;46.320;48.028;2023-09-08T11:07:33;22.43;35.72
75471;HTU21D;64051;46.320;48.028;2023-09-08T11:09:59;22.44;35.73
75471;HTU21D;64051;46.320;48.028;2023-09-08T11:12:29;22.50;35.63
75471;HTU21D;64051;46.320;48.028;2023-09-08T11:14:59;22.54;35.60
75471;HTU21D;64051;46.320;48.028;2023-09-08T11:17:37;22.55;35.62
75471;HTU21D;64051;46.320;48.028;2023-09-08T11:20:08;22.53;35.56
75471;HTU21D;64051;46.320;48.028;2023-09-08T11:22:37;22.54;35.61
75471;HTU21D;64051;46.320;48.028;2023-09-08T11:25:04;22.56;35.66
75471;HTU21D;64051;46.320;48.028;2023-09-08T11:27:32;22.58;35.46
75471;HTU21D;64051;46.320;48.028;2023-09-08T11:29:58;22.56;35.41
75471;HTU21D;64051;46.320;48.028;2023-09-08T11:32:25;22.54;35.46
75471;HTU21D;64051;46.320;48.028;2023-09-08T11:34:53;22.54;35.41
75471;HTU21D;64051;46.320;48.028;2023-09-08T11:37:20;22.55;35.44
75471;HTU21D;64051;46.320;48.028;2023-09-08T11:39:58;22.54;35.22
75471;HTU21D;64051;46.320;48.028;2023-09-08T11:42:24;22.55;35.43
75471;HTU21D;64051;46.320;48.028;2023-09-08T11:44:57;22.58;35.30
75471;HTU21D;64051;46.320;48.028;2023-09-08T11:47:23;22.60;35.40
75471;HTU21D;64051;46.320;48.028;2023-09-08T11:49:53;22.60;35.32
75471;HTU21D;64051;46.320;48.028;2023-09-08T11:52:23;22.57;35.12
75471;HTU21D;64051;46.320;48.028;2023-09-08T11:54:50;22.48;35.17
75471;HTU21D;64051;46.320;48.028;2023-09-08T11:57:17;22.39;35.20
75471;HTU21D;64051;46.320;48.028;2023-09-08T11:59:44;22.41;35.31
75471;HTU21D;64051;46.320;48.028;2023-09-08T12:02:21;22.46;35.15
75471;HTU21D;64051;46.320;48.028;2023-09-08T12:04:47;22.40;34.97
75471;HTU21D;64051;46.320;48.028;2023-09-08T12:07:17;22.36;35.05
75471;HTU21D;64051;46.320;48.028;2023-09-08T12:09:46;22.31;35.02
75471;HTU21D;64051;46.320;48.028;2023-09-08T12:12:14;22.28;35.10
75471;HTU21D;64051;46.320;48.028;2023-09-08T12:14:42;22.33;35.15
75471;HTU21D;64051;46.320;48.028;2023-09-08T12:17:08;22.41;35.10
75471;HTU21D;64051;46.320;48.028;2023-09-08T12:19:35;22.47;34.95
75471;HTU21D;64051;46.320;48.028;2023-09-08T12:22:07;22.47;34.86
75471;HTU21D;64051;46.320;48.028;2023-09-08T12:27:22;22.33;34.63
75471;HTU21D;64051;46.320;48.028;2023-09-08T12:29:59;22.29;34.60
75471;HTU21D;64051;46.320;48.028;2023-09-08T12:32:30;22.27;34.64
75471;HTU21D;64051;46.320;48.028;2023-09-08T12:34:58;22.26;34.74
75471;HTU21D;64051;46.320;48.028;2023-09-08T12:37:25;22.27;34.74
75471;HTU21D;64051;46.320;48.028;2023-09-08T12:40:01;22.29;34.66
75471;HTU21D;64051;46.320;48.028;2023-09-08T12:42:33;22.28;34.47
75471;HTU21D;64051;46.320;48.028;2023-09-08T12:44:59;22.25;34.59
75471;HTU21D;64051;46.320;48.028;2023-09-08T12:47:28;22.21;34.50
75471;HTU21D;64051;46.320;48.028;2023-09-08T12:49:54;22.11;34.50
75471;HTU21D;64051;46.320;48.028;2023-09-08T12:52:24;22.04;34.49
75471;HTU21D;64051;46.320;48.028;2023-09-08T12:54:53;21.97;34.51
75471;HTU21D;64051;46.320;48.028;2023-09-08T12:57:22;21.90;34.38
75471;HTU21D;64051;46.320;48.028;2023-09-08T12:59:50;21.84;34.44
75471;HTU21D;64051;46.320;48.028;2023-09-08T13:02:17;21.88;34.60
75471;HTU21D;64051;46.320;48.028;2023-09-08T13:04:46;21.91;34.43
75471;HTU21D;64051;46.320;48.028;2023-09-08T13:07:19;21.93;34.44
75471;HTU21D;64051;46.320;48.028;2023-09-08T13:09:44;21.93;34.43
75471;HTU21D;64051;46.320;48.028;2023-09-08T13:12:10;21.92;34.36
75471;HTU21D;64051;46.320;48.028;2023-09-08T13:14:40;21.87;34.31
75471;HTU21D;64051;46.320;48.028;2023-09-08T13:17:06;21.83;34.34
75471;HTU21D;64051;46.320;48.028;2023-09-08T13:19:35;21.82;34.37
75471;HTU21D;64051;46.320;48.028;2023-09-08T13:22:04;21.84;34.35
75471;HTU21D;64051;46.320;48.028;2023-09-08T13:24:32;21.84;34.28
75471;HTU21D;64051;46.320;48.028;2023-09-08T13:27:01;21.79;34.21
75471;HTU21D;64051;46.320;48.028;2023-09-08T13:29:27;21.75;34.28
75471;HTU21D;64051;46.320;48.028;2023-09-08T13:31:53;21.75;34.34
75471;HTU21D;64051;46.320;48.028;2023-09-08T13:34:20;21.76;34.31
75471;HTU21D;64051;46.320;48.028;2023-09-08T13:36:52;21.75;34.31
75471;HTU21D;64051;46.320;48.028;2023-09-08T13:39:23;21.70;34.34
75471;HTU21D;64051;46.320;48.028;2023-09-08T13:41:54;21.68;34.24
75471;HTU21D;64051;46.320;48.028;2023-09-08T13:44:25;21.62;34.34
75471;HTU21D;64051;46.320;48.028;2023-09-08T13:46:52;21.57;34.36
75471;HTU21D;64051;46.320;48.028;2023-09-08T13:49:21;21.52;34.33
75471;HTU21D;64051;46.320;48.028;2023-09-08T13:51:54;21.47;34.18
75471;HTU21D;64051;46.320;48.028;2023-09-08T13:54:20;21.40;34.35
75471;HTU21D;64051;46.320;48.028;2023-09-08T13:56:58;21.35;34.14
75471;HTU21D;64051;46.320;48.028;2023-09-08T13:59:26;21.30;34.39
75471;HTU21D;64051;46.320;48.028;2023-09-08T14:02:04;21.25;34.43
75471;HTU21D;64051;46.320;48.028;2023-09-08T14:04:30;21.20;34.44
75471;HTU21D;64051;46.320;48.028;2023-09-08T14:06:56;21.17;34.43
75471;HTU21D;64051;46.320;48.028;2023-09-08T14:09:22;21.11;34.43
75471;HTU21D;64051;46.320;48.028;2023-09-08T14:11:54;21.06;34.37
75471;HTU21D;64051;46.320;48.028;2023-09-08T14:14:20;21.01;34.48
75471;HTU21D;64051;46.320;48.028;2023-09-08T14:16:47;20.95;34.48
75471;HTU21D;64051;46.320;48.028;2023-09-08T14:19:18;20.92;34.44
75471;HTU21D;64051;46.320;48.028;2023-09-08T14:21:44;20.87;34.44
75471;HTU21D;64051;46.320;48.028;2023-09-08T14:24:10;20.81;34.47
75471;HTU21D;64051;46.320;48.028;2023-09-08T14:26:42;20.74;34.47
75471;HTU21D;64051;46.320;48.028;2023-09-08T14:29:11;20.71;34.45
75471;HTU21D;64051;46.320;48.028;2023-09-08T14:31:37;20.65;34.53
75471;HTU21D;64051;46.320;48.028;2023-09-08T14:34:05;20.60;34.43
75471;HTU21D;64051;46.320;48.028;2023-09-08T14:36:31;20.54;34.56
75471;HTU21D;64051;46.320;48.028;2023-09-08T14:39:03;20.48;34.60
75471;HTU21D;64051;46.320;48.028;2023-09-08T14:41:29;20.42;34.61
75471;HTU21D;64051;46.320;48.028;2023-09-08T14:44:01;20.35;34.65
75471;HTU21D;64051;46.320;48.028;2023-09-08T14:46:27;20.28;34.68
75471;HTU21D;64051;46.320;48.028;2023-09-08T14:48:55;20.17;34.73
75471;HTU21D;64051;46.320;48.028;2023-09-08T14:51:30;20.07;34.79
75471;HTU21D;64051;46.320;48.028;2023-09-08T14:53:56;19.97;34.87
75471;HTU21D;64051;46.320;48.028;2023-09-08T14:56:25;19.90;34.93
75471;HTU21D;64051;46.320;48.028;2023-09-08T14:58:54;19.81;34.95
75471;HTU21D;64051;46.320;48.028;2023-09-08T15:01:20;19.74;34.98
75471;HTU21D;64051;46.320;48.028;2023-09-08T15:03:46;19.68;35.02
75471;HTU21D;64051;46.320;48.028;2023-09-08T15:06:14;19.61;35.03
75471;HTU21D;64051;46.320;48.028;2023-09-08T15:08:40;19.56;35.05
75471;HTU21D;64051;46.320;48.028;2023-09-08T15:11:17;19.52;34.99
75471;HTU21D;64051;46.320;48.028;2023-09-08T15:13:43;19.43;35.12
75471;HTU21D;64051;46.320;48.028;2023-09-08T15:16:09;19.37;35.17
75471;HTU21D;64051;46.320;48.028;2023-09-08T15:18:38;19.31;35.18
75471;HTU21D;64051;46.320;48.028;2023-09-08T15:21:14;19.25;35.22
75471;HTU21D;64051;46.320;48.028;2023-09-08T15:23:40;19.20;35.28